createdAt,value
2023-01-08T00:03:31.974Z,100036.44
2023-01-08T00:08:34.192Z,100038.06
2023-01-08T00:13:42.046Z,100026.06
2023-01-08T00:18:44.961Z,100023.88
2023-01-08T00:23:46.798Z,100029.56
2023-01-08T00:28:48.440Z,100027.19
2023-01-08T00:33:50.062Z,100013.84
2023-01-08T00:38:51.726Z,100021.03
2023-01-08T00:43:53.328Z,100015.28
2023-01-08T00:48:55.000Z,100009.78
2023-01-08T00:53:59.665Z,99994.75
2023-01-08T00:59:01.379Z,99981.41
2023-01-08T01:04:03.225Z,99985.88
2023-01-08T01:09:04.849Z,99982.47
2023-01-08T01:14:06.474Z,99977.53
2023-01-08T01:19:08.429Z,99976.31
2023-01-08T01:24:12.631Z,99979.31
2023-01-08T01:29:14.272Z,99971.00
2023-01-08T01:34:16.046Z,99963.38
2023-01-08T01:39:19.879Z,99962.59
2023-01-08T01:44:41.448Z,99969.13
2023-01-08T01:49:49.987Z,99976.22
2023-01-08T01:54:52.480Z,99971.47
2023-01-08T01:59:56.416Z,99979.41
2023-01-08T02:04:59.599Z,99970.25
2023-01-08T02:10:11.556Z,99973.91
2023-01-08T02:15:24.339Z,99966.34
2023-01-08T02:20:46.504Z,99959.94
2023-01-08T02:26:09.414Z,99964.94
2023-01-08T02:31:13.176Z,99968.25
2023-01-08T02:36:33.457Z,99972.50
2023-01-08T02:41:42.151Z,99973.72
2023-01-08T02:46:44.817Z,99960.88
2023-01-08T02:51:53.763Z,99953.50
2023-01-08T02:57:03.094Z,99956.53
2023-01-08T03:02:05.894Z,99948.00
2023-01-08T03:07:07.590Z,99965.59
2023-01-08T03:12:38.219Z,99960.47
2023-01-08T03:17:45.235Z,99950.88
2023-01-08T03:22:50.864Z,99954.28
2023-01-08T03:27:57.660Z,99953.63
2023-01-08T03:33:01.297Z,99949.50
2023-01-08T03:38:40.642Z,99936.34
2023-01-08T03:43:42.313Z,99955.44
2023-01-08T03:48:44.926Z,99933.50
2023-01-08T03:53:47.396Z,99940.69
2023-01-08T03:58:49.094Z,99932.84
2023-01-08T04:03:50.769Z,99924.63
2023-01-08T04:08:55.211Z,99926.03
2023-01-08T04:13:56.845Z,99929.31
2023-01-08T04:18:58.479Z,99935.34
2023-01-08T04:24:00.301Z,99930.06
2023-01-08T04:29:04.942Z,99921.56
2023-01-08T04:34:06.613Z,99921.91
2023-01-08T04:39:08.596Z,99925.81
2023-01-08T04:44:10.265Z,99923.06
2023-01-08T04:49:12.453Z,99913.13
2023-01-08T04:54:14.173Z,99912.28
2023-01-08T04:59:15.795Z,99909.63
2023-01-08T05:04:17.539Z,99906.41
2023-01-08T05:09:19.171Z,99914.25
2023-01-08T05:14:20.860Z,99911.22
2023-01-08T05:19:22.593Z,99895.66
2023-01-08T05:24:24.360Z,99902.66
2023-01-08T05:29:25.949Z,99903.00
2023-01-08T05:34:27.611Z,99893.44
2023-01-08T05:39:29.344Z,99890.38
2023-01-08T05:44:31.054Z,99903.88
2023-01-08T05:49:32.730Z,99909.53
2023-01-08T05:54:34.397Z,99900.09
2023-01-08T05:59:36.009Z,99908.97
2023-01-08T06:04:37.689Z,99903.56
2023-01-08T06:09:39.372Z,99910.25
2023-01-08T06:14:40.984Z,99904.78
2023-01-08T06:19:42.617Z,99911.66
2023-01-08T06:24:44.291Z,99905.53
2023-01-08T06:29:45.942Z,99896.25
2023-01-08T06:34:47.650Z,99899.56
2023-01-08T06:39:49.343Z,99891.69
2023-01-08T06:44:51.040Z,99894.25
2023-01-08T06:49:52.739Z,99896.72
2023-01-08T06:54:54.328Z,99886.06
2023-01-08T06:59:55.958Z,99898.56
2023-01-08T07:04:57.614Z,99888.84
2023-01-08T07:09:59.209Z,99888.84
2023-01-08T07:15:01.872Z,99890.09
2023-01-08T07:20:03.790Z,99879.97
2023-01-08T07:25:06.028Z,99879.03
2023-01-08T07:30:12.829Z,99874.63
2023-01-08T07:35:19.831Z,99870.56
2023-01-08T07:40:21.957Z,99867.72
2023-01-08T07:45:23.694Z,99863.81
2023-01-08T07:50:26.338Z,99862.78
2023-01-08T07:55:29.792Z,99867.56
2023-01-08T08:00:31.493Z,99867.94
2023-01-08T08:05:34.110Z,99860.59
2023-01-08T08:10:35.789Z,99861.97
2023-01-08T08:15:38.799Z,99856.56
2023-01-08T08:20:40.399Z,99845.81
2023-01-08T08:25:42.809Z,99843.06
2023-01-08T08:30:44.509Z,99839.13
2023-01-08T08:35:50.563Z,99836.94
2023-01-08T08:40:52.924Z,99845.84
2023-01-08T08:45:57.796Z,99838.50
2023-01-08T08:50:59.477Z,99848.59
2023-01-08T08:56:01.344Z,99840.22
2023-01-08T09:01:04.235Z,99832.91
2023-01-08T09:06:06.311Z,99820.03
2023-01-08T09:11:08.006Z,99828.22
2023-01-08T09:16:09.713Z,99821.38
2023-01-08T09:21:11.752Z,99816.78
2023-01-08T09:26:13.421Z,99813.84
2023-01-08T09:31:15.097Z,99809.00
2023-01-08T09:36:17.050Z,99799.41
2023-01-08T09:41:26.821Z,99806.88
2023-01-08T09:46:29.378Z,99801.19
2023-01-08T09:51:36.650Z,99800.09
2023-01-08T09:56:38.654Z,99805.69
2023-01-08T10:01:41.335Z,99798.81
2023-01-08T10:06:57.115Z,99799.78
2023-01-08T10:12:02.569Z,99803.00
2023-01-08T10:17:23.857Z,99792.81
2023-01-08T10:22:31.933Z,99783.00
2023-01-08T10:27:45.965Z,99780.19
2023-01-08T10:32:56.094Z,99773.88
2023-01-08T10:37:58.066Z,99770.38
2023-01-08T10:43:08.642Z,99776.78
2023-01-08T10:48:18.437Z,99763.56
2023-01-08T10:53:28.271Z,99771.22
2023-01-08T10:58:30.842Z,99768.94
2023-01-08T11:03:33.045Z,99757.59
2023-01-08T11:08:34.800Z,99740.50
2023-01-08T11:13:36.783Z,99743.53
2023-01-08T11:18:51.768Z,99744.09
2023-01-08T11:24:22.733Z,99732.09
2023-01-08T11:29:38.970Z,99729.28
2023-01-08T11:34:59.463Z,99723.13
2023-01-08T11:40:01.345Z,99705.94
2023-01-08T11:45:17.877Z,99711.78
2023-01-08T11:50:29.055Z,99685.47
2023-01-08T11:55:35.543Z,99682.72
2023-01-08T12:01:15.060Z,99685.34
2023-01-08T12:06:37.052Z,99681.69
2023-01-08T12:11:47.390Z,99666.56
2023-01-08T12:16:59.414Z,99671.63
2023-01-08T12:22:16.236Z,99671.78
2023-01-08T12:27:40.857Z,99657.41
2023-01-08T12:32:55.996Z,99659.78
2023-01-08T12:38:11.400Z,99655.28
2023-01-08T12:43:27.440Z,99644.50
2023-01-08T12:48:33.678Z,99647.22
2023-01-08T12:53:49.394Z,99639.25
2023-01-08T12:59:08.271Z,99633.13
2023-01-08T13:04:11.239Z,99617.72
2023-01-08T13:09:23.149Z,99616.09
2023-01-08T13:14:27.444Z,99614.19
2023-01-08T13:19:38.422Z,99608.97
2023-01-08T13:24:42.770Z,99608.56
2023-01-08T13:29:50.051Z,99598.66
2023-01-08T13:35:16.753Z,99597.38
2023-01-08T13:40:43.243Z,99578.16
2023-01-08T13:46:08.887Z,99573.53
2023-01-08T13:51:44.696Z,99570.78
2023-01-08T13:56:53.970Z,99567.22
2023-01-08T14:01:57.097Z,99546.69
2023-01-08T14:07:12.718Z,99541.88
2023-01-08T14:12:20.340Z,99532.97
2023-01-08T14:17:31.398Z,99534.94
2023-01-08T14:22:34.899Z,99535.59
2023-01-08T14:27:36.640Z,99535.59
2023-01-08T14:32:43.485Z,99529.47
2023-01-08T14:37:45.198Z,99527.13
2023-01-08T14:42:47.540Z,99513.78
2023-01-08T14:47:56.699Z,99505.56
2023-01-08T14:53:26.835Z,99503.88
2023-01-08T14:58:35.228Z,99496.69
2023-01-08T15:03:40.459Z,99482.59
2023-01-08T15:08:44.634Z,99485.09
2023-01-08T15:13:48.291Z,99477.44
2023-01-08T15:19:18.043Z,99476.38
2023-01-08T15:24:29.317Z,99473.25
2023-01-08T15:29:37.153Z,99467.91
2023-01-08T15:34:38.791Z,99466.16
2023-01-08T15:39:41.125Z,99457.50
2023-01-08T15:44:42.761Z,99455.56
2023-01-08T15:49:44.686Z,99447.09
2023-01-08T15:54:46.416Z,99435.91
2023-01-08T15:59:48.116Z,99441.28
2023-01-08T16:04:54.482Z,99437.94
2023-01-08T16:09:56.493Z,99439.38
2023-01-08T16:14:58.217Z,99449.44
2023-01-08T16:19:59.880Z,99450.03
2023-01-08T16:25:01.717Z,99451.91
2023-01-08T16:30:04.620Z,99460.59
2023-01-08T16:35:06.879Z,99441.63
2023-01-08T16:40:10.040Z,99445.38
2023-01-08T16:45:11.837Z,99435.44
2023-01-08T16:50:13.534Z,99430.53
2023-01-08T16:55:15.208Z,99433.34
2023-01-08T17:00:17.256Z,99422.41
2023-01-08T17:05:18.948Z,99404.66
2023-01-08T17:10:22.828Z,99400.91
2023-01-08T17:15:24.591Z,99396.75
2023-01-08T17:20:26.266Z,99376.56
2023-01-08T17:25:28.068Z,99375.34
2023-01-08T17:30:29.701Z,99367.50
2023-01-08T17:35:31.443Z,99344.16
2023-01-08T17:40:34.464Z,99337.66
2023-01-08T17:45:38.628Z,99324.59
2023-01-08T17:50:40.606Z,99319.38
2023-01-08T17:55:42.363Z,99312.19
2023-01-08T18:00:44.060Z,99301.22
2023-01-08T18:05:45.679Z,99298.94
2023-01-08T18:10:47.641Z,99285.69
2023-01-08T18:15:49.397Z,99274.69
2023-01-08T18:20:56.666Z,99267.06
2023-01-08T18:26:07.244Z,99261.53
2023-01-08T18:31:13.971Z,99259.03
2023-01-08T18:36:18.902Z,99246.59
2023-01-08T18:41:39.575Z,99248.47
2023-01-08T18:46:41.316Z,99241.50
2023-01-08T18:51:43.347Z,99236.59
2023-01-08T18:56:46.447Z,99230.28
2023-01-08T19:01:48.825Z,99241.41
2023-01-08T19:06:50.634Z,99223.06
2023-01-08T19:11:53.734Z,99223.91
2023-01-08T19:16:58.426Z,99207.88
2023-01-08T19:22:03.339Z,99191.84
2023-01-08T19:27:05.172Z,99185.34
2023-01-08T19:32:07.691Z,99177.59
2023-01-08T19:37:09.804Z,99175.66
2023-01-08T19:42:30.440Z,99172.28
2023-01-08T19:47:32.257Z,99171.22
2023-01-08T19:52:33.952Z,99164.06
2023-01-08T19:57:35.702Z,99142.38
2023-01-08T20:02:37.438Z,99143.00
2023-01-08T20:07:41.853Z,99143.00
2023-01-08T20:12:46.374Z,99144.41
2023-01-08T20:17:48.093Z,99135.41
2023-01-08T20:22:52.256Z,99132.25
2023-01-08T20:27:53.927Z,99123.00
2023-01-08T20:32:55.668Z,99125.50
2023-01-08T20:37:57.468Z,99116.03
2023-01-08T20:42:59.244Z,99110.13
2023-01-08T20:48:04.251Z,99107.16
2023-01-08T20:53:05.876Z,99102.97
2023-01-08T20:58:07.688Z,99096.28
2023-01-08T21:03:15.273Z,99090.38
2023-01-08T21:08:22.451Z,99081.53
2023-01-08T21:13:25.656Z,99088.69
2023-01-08T21:18:33.673Z,99079.03
2023-01-08T21:23:35.661Z,99062.75
2023-01-08T21:28:38.908Z,99080.66
2023-01-08T21:33:41.557Z,99089.47
2023-01-08T21:38:44.257Z,99087.19
2023-01-08T21:44:06.837Z,99073.28
2023-01-08T21:49:08.520Z,99059.19
2023-01-08T21:54:10.234Z,99074.38
2023-01-08T21:59:12.033Z,99049.75
2023-01-08T22:04:13.761Z,99054.97
2023-01-08T22:09:15.522Z,99041.72
2023-01-08T22:14:17.494Z,99058.78
2023-01-08T22:19:19.085Z,99055.41
2023-01-08T22:24:20.909Z,99045.72
2023-01-08T22:29:22.619Z,99044.66
2023-01-08T22:34:24.350Z,99047.13
2023-01-08T22:39:26.079Z,99065.69
2023-01-08T22:44:27.750Z,99068.00
2023-01-08T22:49:29.376Z,99076.22
2023-01-08T22:54:31.098Z,99082.06
2023-01-08T22:59:32.838Z,99080.34
2023-01-08T23:04:34.560Z,99083.09
2023-01-08T23:09:36.205Z,99097.00
2023-01-08T23:14:40.137Z,99106.03
2023-01-08T23:19:42.185Z,99114.22
2023-01-08T23:24:43.888Z,99118.63
2023-01-08T23:29:45.568Z,99117.78
2023-01-08T23:34:48.149Z,99119.44
2023-01-08T23:39:49.889Z,99125.06
2023-01-08T23:44:51.530Z,99125.91
2023-01-08T23:49:53.556Z,99135.59
2023-01-08T23:54:55.239Z,99132.88
2023-01-08T23:59:56.908Z,99133.47
